Time;durP1;ratioP1;P1;durP2;ratioP2;P2;SDS_P1;SDS_P2;PMS_P1;PMS_P2;Temp;Humidity;BMP_temperature;BMP_pressure;BME280_temperature;BME280_humidity;BME280_pressure;Samples;Min_cycle;Max_cycle;Signal;HPM_P1;HPM_P2
2022/04/03 03:03:05;;;;;;;1.10;1.10;;;3.40;79.80;;;;;;4917030;29;20487;-71
2022/04/03 03:05:32;;;;;;;1.23;1.13;;;3.50;79.70;;;;;;4918025;29;20552;-73
2022/04/03 03:07:59;;;;;;;1.47;1.37;;;3.50;79.40;;;;;;4918050;29;20484;-72
2022/04/03 03:10:25;;;;;;;1.30;1.20;;;3.60;79.10;;;;;;4918314;29;20453;-72
2022/04/03 03:12:52;;;;;;;1.20;1.20;;;3.40;79.30;;;;;;4936804;29;20451;-72
2022/04/03 03:15:19;;;;;;;1.40;1.30;;;3.50;79.10;;;;;;4937498;29;20492;-72
2022/04/03 03:17:46;;;;;;;1.30;1.20;;;3.50;79.30;;;;;;4936400;29;20530;-72
2022/04/03 03:20:15;;;;;;;1.10;1.10;;;3.40;79.20;;;;;;4936574;29;20490;-72
2022/04/03 03:22:42;;;;;;;1.10;1.10;;;3.40;79.30;;;;;;4936298;29;21134;-71
2022/04/03 03:25:09;;;;;;;1.30;1.20;;;3.50;79.20;;;;;;4936512;29;20456;-72
2022/04/03 03:27:38;;;;;;;1.47;1.37;;;3.50;79.30;;;;;;4936135;29;20998;-72
2022/04/03 03:30:06;;;;;;;1.40;1.30;;;3.50;79.10;;;;;;4936581;29;20558;-73
2022/04/03 03:32:33;;;;;;;1.10;1.00;;;3.50;79.20;;;;;;4936333;29;20483;-72
2022/04/03 03:35:00;;;;;;;1.27;1.17;;;3.50;79.40;;;;;;4936445;29;20947;-72
2022/04/03 03:37:28;;;;;;;1.43;1.33;;;3.50;79.00;;;;;;4936124;29;20956;-72
2022/04/03 03:39:55;;;;;;;1.70;1.60;;;3.60;78.90;;;;;;4935987;29;20551;-72
2022/04/03 03:42:22;;;;;;;1.07;1.07;;;3.60;78.80;;;;;;4936100;29;20523;-73
2022/04/03 03:44:49;;;;;;;1.40;1.30;;;3.50;78.50;;;;;;4936240;29;20466;-72
2022/04/03 03:47:16;;;;;;;1.30;1.20;;;3.50;78.40;;;;;;4936036;29;20475;-72
2022/04/03 03:49:42;;;;;;;1.33;1.23;;;3.50;78.70;;;;;;4936006;29;20452;-72
2022/04/03 03:52:09;;;;;;;1.17;1.17;;;3.50;78.70;;;;;;4935799;29;20876;-72
2022/04/03 03:54:37;;;;;;;1.43;1.33;;;3.50;78.70;;;;;;4936093;29;20555;-72
2022/04/03 03:57:05;;;;;;;1.30;1.20;;;3.40;78.30;;;;;;4936170;29;20452;-72
2022/04/03 03:59:31;;;;;;;1.20;1.10;;;3.30;78.90;;;;;;4935803;29;20507;-73
2022/04/03 04:01:58;;;;;;;1.20;1.20;;;3.40;79.10;;;;;;4935740;29;20534;-72
2022/04/03 04:04:25;;;;;;;1.13;1.13;;;3.40;78.90;;;;;;4935879;29;20478;-72
2022/04/03 04:06:52;;;;;;;1.40;1.30;;;3.30;79.10;;;;;;4936495;29;20488;-72
2022/04/03 04:09:19;;;;;;;1.17;1.07;;;3.30;79.30;;;;;;4937027;29;20543;-72
2022/04/03 04:11:47;;;;;;;1.43;1.33;;;3.40;79.30;;;;;;4938115;29;20472;-72
2022/04/03 04:14:14;;;;;;;1.30;1.20;;;3.40;79.10;;;;;;4936988;29;20506;-73
2022/04/03 04:16:42;;;;;;;1.20;1.20;;;3.30;79.30;;;;;;4938467;29;20530;-71
2022/04/03 04:19:09;;;;;;;1.33;1.23;;;3.40;79.20;;;;;;4938430;29;20452;-72
2022/04/03 04:21:36;;;;;;;1.30;1.20;;;3.40;79.00;;;;;;4938176;29;20471;-73
2022/04/03 04:24:03;;;;;;;1.30;1.20;;;3.40;78.90;;;;;;4938520;29;20490;-73
2022/04/03 04:26:30;;;;;;;1.40;1.30;;;3.40;78.80;;;;;;4937899;29;20479;-73
2022/04/03 04:28:58;;;;;;;1.10;1.10;;;3.50;78.60;;;;;;4938175;29;20451;-72
2022/04/03 04:31:25;;;;;;;1.50;1.40;;;3.50;78.60;;;;;;4938090;29;20483;-72
2022/04/03 04:33:51;;;;;;;1.40;1.30;;;3.50;78.50;;;;;;4938035;29;20451;-72
2022/04/03 04:36:19;;;;;;;1.47;1.37;;;3.60;78.50;;;;;;4939626;29;20452;-72
2022/04/03 04:38:47;;;;;;;1.17;1.17;;;3.60;78.40;;;;;;4941986;29;20963;-72
2022/04/03 04:41:13;;;;;;;1.50;1.30;;;3.60;78.40;;;;;;4942067;29;20483;-73
2022/04/03 04:43:40;;;;;;;1.10;1.10;;;3.60;78.40;;;;;;4940306;29;20503;-72
2022/04/03 04:46:08;;;;;;;1.23;1.20;;;3.60;78.50;;;;;;4939256;29;20744;-72
2022/04/03 04:48:35;;;;;;;1.13;1.13;;;3.60;78.30;;;;;;4939546;29;20491;-72
2022/04/03 04:51:02;;;;;;;1.20;1.20;;;3.60;78.30;;;;;;4939350;29;20530;-72
2022/04/03 04:53:29;;;;;;;1.40;1.30;;;3.60;78.10;;;;;;4939109;29;20954;-72
2022/04/03 04:55:56;;;;;;;1.50;1.40;;;3.50;78.40;;;;;;4939240;29;20479;-72
2022/04/03 04:58:22;;;;;;;1.40;1.30;;;3.40;79.10;;;;;;4939305;29;20452;-72
2022/04/03 05:00:49;;;;;;;1.40;1.30;;;3.40;79.00;;;;;;4939046;29;20527;-72
2022/04/03 05:03:17;;;;;;;1.53;1.43;;;3.40;79.30;;;;;;4939295;29;20499;-73
2022/04/03 05:05:44;;;;;;;1.40;1.30;;;3.40;79.10;;;;;;4939040;29;20503;-71
2022/04/03 05:08:10;;;;;;;1.20;1.20;;;3.30;79.20;;;;;;4939053;29;20487;-73
2022/04/03 05:10:37;;;;;;;1.30;1.20;;;3.40;79.30;;;;;;4939060;29;20454;-72
2022/04/03 05:13:04;;;;;;;1.10;1.10;;;3.50;79.10;;;;;;4939031;29;20506;-73
2022/04/03 05:15:33;;;;;;;1.30;1.20;;;3.50;78.70;;;;;;4939000;29;20447;-73
2022/04/03 05:18:00;;;;;;;1.50;1.40;;;3.50;78.90;;;;;;4938912;29;20447;-73
2022/04/03 05:20:28;;;;;;;1.20;1.10;;;3.60;78.70;;;;;;4938934;29;20519;-72
2022/04/03 05:22:55;;;;;;;1.30;1.20;;;3.50;78.80;;;;;;4938739;29;20483;-72
2022/04/03 05:25:22;;;;;;;1.20;1.10;;;3.50;78.40;;;;;;4938985;29;20455;-72
2022/04/03 05:27:48;;;;;;;1.30;1.20;;;3.50;78.70;;;;;;4938733;29;20543;-72
2022/04/03 05:30:15;;;;;;;1.40;1.30;;;3.50;79.00;;;;;;4938829;29;20479;-72
2022/04/03 05:32:43;;;;;;;1.50;1.40;;;3.50;78.50;;;;;;4938587;29;20472;-72
2022/04/03 05:35:13;;;;;;;1.30;1.20;;;3.60;78.60;;;;;;4938672;29;20455;-72
2022/04/03 05:37:41;;;;;;;1.20;1.20;;;3.60;78.50;;;;;;4938776;29;20458;-70
2022/04/03 05:40:10;;;;;;;1.37;1.27;;;3.50;78.70;;;;;;4938533;29;20448;-72
2022/04/03 05:42:37;;;;;;;1.27;1.20;;;3.30;79.00;;;;;;4938394;29;20474;-72
2022/04/03 05:45:05;;;;;;;1.23;1.00;;;3.40;79.50;;;;;;4938321;29;20507;-73
2022/04/03 05:47:32;;;;;;;1.40;1.30;;;3.40;79.10;;;;;;4937279;29;20860;-73
2022/04/03 05:49:59;;;;;;;1.10;1.10;;;3.50;79.10;;;;;;4938248;29;20459;-72
2022/04/03 05:52:26;;;;;;;1.43;1.33;;;3.50;78.90;;;;;;4938167;29;20467;-73
2022/04/03 05:54:54;;;;;;;1.30;1.20;;;3.60;78.60;;;;;;4938172;29;20455;-72
2022/04/03 05:57:21;;;;;;;1.20;1.20;;;3.60;78.70;;;;;;4939799;29;20450;-73
2022/04/03 05:59:48;;;;;;;1.40;1.30;;;3.60;78.70;;;;;;4940709;29;20485;-72
2022/04/03 06:02:14;;;;;;;1.30;1.20;;;3.60;78.50;;;;;;4940002;29;20546;-73
2022/04/03 06:04:41;;;;;;;1.50;1.40;;;3.60;78.40;;;;;;4940241;29;20456;-73
2022/04/03 06:07:08;;;;;;;1.27;1.27;;;3.60;78.50;;;;;;4940164;29;20574;-74
2022/04/03 06:09:35;;;;;;;1.40;1.30;;;3.60;78.50;;;;;;4940307;29;20487;-74
2022/04/03 06:12:03;;;;;;;1.50;1.40;;;3.70;78.40;;;;;;4940029;29;20517;-73
2022/04/03 06:14:30;;;;;;;1.00;1.00;;;3.70;78.30;;;;;;4940263;29;20465;-73
2022/04/03 06:16:57;;;;;;;1.37;1.27;;;3.70;78.20;;;;;;4939379;29;20487;-72
2022/04/03 06:19:23;;;;;;;1.30;1.20;;;3.70;78.10;;;;;;4937679;29;20456;-72
2022/04/03 06:21:50;;;;;;;1.20;1.20;;;3.70;78.10;;;;;;4937624;29;20472;-72
2022/04/03 06:24:17;;;;;;;1.30;1.20;;;3.80;78.20;;;;;;4937698;29;20543;-72
2022/04/03 06:26:43;;;;;;;1.13;1.03;;;3.80;77.80;;;;;;4937197;29;20806;-72
2022/04/03 06:29:12;;;;;;;1.30;1.20;;;3.90;77.60;;;;;;4937617;29;20463;-72
2022/04/03 06:31:38;;;;;;;1.20;1.20;;;3.90;77.50;;;;;;4936984;29;20475;-72
2022/04/03 06:34:06;;;;;;;1.37;1.27;;;4.00;77.60;;;;;;4937055;29;20459;-71
2022/04/03 06:36:33;;;;;;;1.40;1.30;;;4.10;77.40;;;;;;4937429;29;20479;-73
2022/04/03 06:38:59;;;;;;;1.10;1.10;;;4.20;77.20;;;;;;4937009;29;20484;-72
2022/04/03 06:41:26;;;;;;;1.40;1.30;;;4.30;76.80;;;;;;4937080;29;20526;-73
2022/04/03 06:43:53;;;;;;;0.90;0.90;;;4.40;76.50;;;;;;4937250;29;20597;-72
2022/04/03 06:46:21;;;;;;;1.00;1.00;;;4.60;76.10;;;;;;4936874;29;20444;-73
2022/04/03 06:48:48;;;;;;;1.53;1.43;;;4.50;75.40;;;;;;4937145;29;20531;-72
2022/04/03 06:51:15;;;;;;;1.10;1.00;;;4.50;75.50;;;;;;4937141;29;20476;-73
2022/04/03 06:53:41;;;;;;;1.07;1.07;;;4.30;75.40;;;;;;4936807;29;20939;-72
2022/04/03 06:56:08;;;;;;;1.23;1.13;;;4.40;75.40;;;;;;4936792;29;20994;-73
2022/04/03 06:58:35;;;;;;;1.10;1.10;;;4.60;75.20;;;;;;4937049;29;20458;-73
2022/04/03 07:01:03;;;;;;;1.10;1.00;;;4.80;75.10;;;;;;4935684;29;20487;-73
2022/04/03 07:03:32;;;;;;;1.23;1.13;;;4.90;74.20;;;;;;4936887;29;20527;-73
2022/04/03 07:05:59;;;;;;;1.00;1.00;;;4.90;73.70;;;;;;4936661;29;20503;-72
2022/04/03 07:08:28;;;;;;;1.10;1.10;;;4.90;73.60;;;;;;4936406;29;21081;-73
2022/04/03 07:10:55;;;;;;;1.10;1.00;;;5.00;73.40;;;;;;4936377;29;20483;-73
2022/04/03 07:13:21;;;;;;;1.17;1.07;;;5.00;73.30;;;;;;4936703;29;20545;-72
2022/04/03 07:15:49;;;;;;;1.13;1.13;;;5.10;73.30;;;;;;4936635;29;20506;-72
2022/04/03 07:18:16;;;;;;;1.13;1.13;;;5.10;72.80;;;;;;4936193;29;21025;-73
2022/04/03 07:20:46;;;;;;;1.00;1.00;;;4.90;72.50;;;;;;4936330;29;20464;-73
2022/04/03 07:23:13;;;;;;;1.00;1.00;;;5.20;72.50;;;;;;4936142;29;20527;-73
2022/04/03 07:25:40;;;;;;;1.10;1.00;;;5.30;71.60;;;;;;4936278;29;20499;-72
2022/04/03 07:28:07;;;;;;;1.33;1.23;;;5.20;72.50;;;;;;4936191;29;20519;-73
2022/04/03 07:30:34;;;;;;;1.27;1.17;;;5.10;71.00;;;;;;4935998;29;20519;-71
2022/04/03 07:33:00;;;;;;;0.90;0.90;;;4.90;72.00;;;;;;4936313;29;20520;-73
2022/04/03 07:35:27;;;;;;;1.00;1.00;;;5.10;71.30;;;;;;4935882;29;20932;-73
2022/04/03 07:37:55;;;;;;;0.90;0.90;;;5.30;71.00;;;;;;4935994;29;20479;-72
2022/04/03 07:40:22;;;;;;;1.03;0.93;;;5.60;71.10;;;;;;4935934;29;20515;-73
2022/04/03 07:42:49;;;;;;;0.97;0.90;;;6.10;69.60;;;;;;4936121;29;20452;-72
2022/04/03 07:45:16;;;;;;;0.90;0.90;;;6.40;67.40;;;;;;4935966;29;20460;-73
2022/04/03 07:47:47;;;;;;;1.00;1.00;;;6.40;65.20;;;;;;4936047;29;20542;-72
2022/04/03 07:50:14;;;;;;;1.00;1.00;;;6.40;66.30;;;;;;4935991;29;20482;-73
2022/04/03 07:52:41;;;;;;;1.00;1.00;;;6.40;66.40;;;;;;4935557;29;21021;-71
2022/04/03 07:55:10;;;;;;;0.80;0.80;;;6.40;67.10;;;;;;4935849;29;20578;-73
2022/04/03 07:57:37;;;;;;;0.80;0.80;;;6.60;66.00;;;;;;4935717;29;20543;-72
2022/04/03 08:00:06;;;;;;;0.80;0.80;;;6.50;66.20;;;;;;4936435;29;20464;-72
2022/04/03 08:02:33;;;;;;;1.20;1.10;;;6.50;64.30;;;;;;4935345;29;20487;-72
2022/04/03 08:04:59;;;;;;;0.93;0.93;;;6.00;65.50;;;;;;4935486;29;20952;-72
2022/04/03 08:07:35;;;;;;;0.90;0.90;;;5.30;69.00;;;;;;4935703;29;20448;-72
2022/04/03 08:10:01;;;;;;;0.90;0.90;;;5.10;70.20;;;;;;4935851;29;20443;-73
2022/04/03 08:12:29;;;;;;;1.00;1.00;;;5.40;70.10;;;;;;4936228;29;20487;-73
2022/04/03 08:14:56;;;;;;;0.80;0.80;;;5.80;69.70;;;;;;4935647;29;20508;-72
2022/04/03 08:17:22;;;;;;;1.10;1.00;;;6.00;68.70;;;;;;4935606;29;20460;-73
2022/04/03 08:19:49;;;;;;;1.00;1.00;;;6.10;68.10;;;;;;4935575;29;20455;-72
2022/04/03 08:22:16;;;;;;;1.10;0.80;;;6.30;67.60;;;;;;4935592;29;20538;-73
2022/04/03 08:24:43;;;;;;;0.90;0.90;;;5.90;67.10;;;;;;4935278;29;20924;-72
2022/04/03 08:27:12;;;;;;;0.93;0.93;;;5.60;67.20;;;;;;4935521;29;20456;-72
2022/04/03 08:29:40;;;;;;;1.23;1.13;;;5.60;68.10;;;;;;4935401;29;20491;-72
2022/04/03 08:32:07;;;;;;;1.00;0.90;;;5.40;67.00;;;;;;4935503;29;20472;-72
2022/04/03 08:34:34;;;;;;;0.93;0.93;;;5.30;67.90;;;;;;4935476;29;20455;-72
2022/04/03 08:37:01;;;;;;;0.90;0.90;;;5.20;68.80;;;;;;4935403;29;20456;-72
2022/04/03 08:39:27;;;;;;;1.10;1.10;;;5.40;69.20;;;;;;4935468;29;20440;-72
2022/04/03 08:41:55;;;;;;;0.70;0.70;;;5.60;68.80;;;;;;4935309;29;20475;-72
2022/04/03 08:44:22;;;;;;;1.23;0.83;;;5.70;68.70;;;;;;4935411;29;20511;-72
2022/04/03 08:46:51;;;;;;;0.80;0.80;;;5.80;68.60;;;;;;4935035;29;20456;-72
2022/04/03 08:49:19;;;;;;;1.00;1.00;;;5.80;68.50;;;;;;4935264;29;20575;-72
2022/04/03 08:51:47;;;;;;;0.80;0.80;;;5.70;68.60;;;;;;4935320;29;20478;-72
2022/04/03 08:54:15;;;;;;;0.97;0.97;;;5.70;69.30;;;;;;4935279;29;20455;-72
2022/04/03 08:56:42;;;;;;;0.90;0.90;;;5.90;69.10;;;;;;4935350;29;20456;-71
2022/04/03 08:59:09;;;;;;;0.70;0.70;;;5.90;69.00;;;;;;4935309;29;20562;-72
2022/04/03 09:01:36;;;;;;;0.80;0.80;;;6.00;68.70;;;;;;4934802;29;20496;-72
2022/04/03 09:04:05;;;;;;;1.17;1.07;;;5.90;68.80;;;;;;4935227;29;20452;-72
2022/04/03 09:06:31;;;;;;;0.83;0.83;;;5.80;68.40;;;;;;4935237;29;20452;-73
2022/04/03 09:08:58;;;;;;;1.00;1.00;;;6.00;67.20;;;;;;4935043;29;20542;-72
2022/04/03 09:11:29;;;;;;;0.80;0.80;;;6.20;66.90;;;;;;4935108;29;20519;-73
2022/04/03 09:16:39;;;;;;;0.90;0.90;;;6.80;65.80;;;;;;4953565;29;20835;-75
2022/04/03 09:19:08;;;;;;;3.07;0.90;;;7.00;64.40;;;;;;4954945;28;20522;-74
2022/04/03 09:21:36;;;;;;;0.90;0.90;;;6.60;63.20;;;;;;4954918;29;20443;-74
2022/04/03 09:24:04;;;;;;;0.80;0.80;;;6.60;63.50;;;;;;4956574;28;21053;-74
2022/04/03 09:26:33;;;;;;;0.80;0.80;;;6.30;65.10;;;;;;4958410;28;20486;-74
2022/04/03 09:29:11;;;;;;;0.80;0.80;;;6.30;66.00;;;;;;4958689;28;20487;-75
2022/04/03 09:31:38;;;;;;;0.90;0.90;;;6.50;66.30;;;;;;4958351;28;20435;-74
2022/04/03 09:34:08;;;;;;;0.80;0.80;;;6.50;64.60;;;;;;4958180;28;20474;-74
2022/04/03 09:36:35;;;;;;;0.80;0.80;;;6.40;65.70;;;;;;4958140;28;20506;-75
2022/04/03 09:39:10;;;;;;;0.70;0.70;;;6.50;66.00;;;;;;4958238;28;20835;-74
2022/04/03 09:41:56;;;;;;;0.83;0.83;;;6.70;65.60;;;;;;4958478;28;20509;-76
2022/04/03 09:44:27;;;;;;;0.90;0.80;;;6.60;64.90;;;;;;4957967;28;20562;-74
2022/04/03 09:47:21;;;;;;;0.80;0.80;;;6.70;64.70;;;;;;4958596;28;20530;-75
2022/04/03 09:49:55;;;;;;;0.80;0.80;;;6.50;64.40;;;;;;4958040;28;20529;-74
2022/04/03 09:52:36;;;;;;;0.80;0.80;;;6.50;63.90;;;;;;4957756;28;20966;-74
2022/04/03 09:55:08;;;;;;;0.80;0.70;;;6.40;64.40;;;;;;4958171;28;20471;-75
2022/04/03 09:57:36;;;;;;;0.90;0.80;;;6.40;64.20;;;;;;4958632;28;20435;-74
2022/04/03 10:00:03;;;;;;;0.93;0.90;;;6.30;64.30;;;;;;4958119;28;20450;-76
2022/04/03 10:02:30;;;;;;;0.90;0.90;;;6.20;64.80;;;;;;4957551;28;20451;-74
2022/04/03 10:04:58;;;;;;;0.80;0.80;;;5.90;65.20;;;;;;4957847;28;20474;-73
2022/04/03 10:07:26;;;;;;;0.80;0.80;;;5.90;66.20;;;;;;4957370;28;20864;-75
2022/04/03 10:09:54;;;;;;;0.80;0.80;;;5.80;66.50;;;;;;4957523;28;20577;-75
2022/04/03 10:12:22;;;;;;;0.70;0.70;;;5.50;66.50;;;;;;4957676;28;20513;-75
2022/04/03 10:14:50;;;;;;;0.80;0.80;;;5.30;67.50;;;;;;4957279;28;20483;-74
2022/04/03 10:17:20;;;;;;;0.70;0.70;;;5.60;66.90;;;;;;4957161;28;20873;-74
2022/04/03 10:19:47;;;;;;;0.90;0.90;;;5.50;66.20;;;;;;4957615;28;20842;-74
2022/04/03 10:22:20;;;;;;;0.80;0.80;;;5.60;64.80;;;;;;4957286;28;20451;-75
2022/04/03 10:24:52;;;;;;;0.80;0.80;;;5.80;65.00;;;;;;4957216;28;20474;-75
2022/04/03 10:27:23;;;;;;;1.30;0.80;;;5.50;65.00;;;;;;4957760;28;20435;-75
2022/04/03 10:29:51;;;;;;;0.80;0.80;;;5.30;65.80;;;;;;4957205;28;20526;-75
2022/04/03 10:32:27;;;;;;;1.00;0.80;;;5.30;65.50;;;;;;4957315;28;20465;-75
2022/04/03 10:34:57;;;;;;;0.70;0.70;;;5.20;66.60;;;;;;4957516;28;20489;-74
2022/04/03 10:37:32;;;;;;;0.80;0.80;;;5.10;66.60;;;;;;4957158;28;20447;-75
2022/04/03 10:40:05;;;;;;;0.70;0.70;;;5.30;65.80;;;;;;4956800;28;20434;-76
2022/04/03 10:42:32;;;;;;;0.77;0.77;;;5.40;66.50;;;;;;4956909;28;20551;-76
2022/04/03 10:45:19;;;;;;;1.00;0.90;;;5.00;67.40;;;;;;4956735;28;20911;-76
2022/04/03 10:47:47;;;;;;;1.50;0.90;;;5.00;67.70;;;;;;4956456;28;20486;-75
2022/04/03 10:50:14;;;;;;;1.47;0.80;;;5.10;67.40;;;;;;4956739;28;20491;-75
2022/04/03 10:52:56;;;;;;;0.90;0.90;;;5.10;66.80;;;;;;4956761;28;20451;-74
2022/04/03 10:55:26;;;;;;;1.10;1.00;;;5.00;66.80;;;;;;4956340;28;21036;-75
2022/04/03 10:57:54;;;;;;;0.80;0.80;;;5.00;67.50;;;;;;4957706;28;20465;-75
2022/04/03 11:00:35;;;;;;;1.00;1.00;;;4.90;66.50;;;;;;4956611;28;20895;-75
2022/04/03 11:03:24;;;;;;;1.30;0.80;;;4.80;67.10;;;;;;4958027;28;20411;-75
2022/04/03 11:05:51;;;;;;;0.83;0.83;;;5.00;68.20;;;;;;4958444;28;20863;-76
2022/04/03 11:08:19;;;;;;;0.80;0.80;;;5.20;69.30;;;;;;4956869;28;20457;-76
2022/04/03 11:10:49;;;;;;;0.80;0.70;;;5.30;69.10;;;;;;4957449;28;20455;-75
2022/04/03 11:13:16;;;;;;;0.90;0.90;;;5.20;68.60;;;;;;4957353;28;20510;-76
2022/04/03 11:15:44;;;;;;;0.80;0.80;;;5.40;68.60;;;;;;4957136;28;20982;-75
2022/04/03 11:18:27;;;;;;;0.80;0.80;;;5.40;67.90;;;;;;4956898;28;20455;-76
2022/04/03 11:21:08;;;;;;;1.00;0.90;;;5.30;66.80;;;;;;4957433;28;20419;-77
2022/04/03 11:23:40;;;;;;;1.10;1.00;;;5.50;67.80;;;;;;4957237;28;20875;-75
2022/04/03 11:26:07;;;;;;;1.40;1.13;;;5.60;67.50;;;;;;4957180;28;20432;-75
2022/04/03 11:28:35;;;;;;;0.80;0.77;;;5.60;67.30;;;;;;4956930;28;20478;-76
2022/04/03 11:31:03;;;;;;;0.73;0.73;;;5.70;65.80;;;;;;4956808;28;21013;-75
2022/04/03 11:33:31;;;;;;;1.10;1.00;;;5.50;66.10;;;;;;4956789;28;20439;-75
2022/04/03 11:36:03;;;;;;;0.80;0.80;;;5.40;65.20;;;;;;4956953;28;20542;-75
2022/04/03 11:38:35;;;;;;;0.80;0.80;;;5.30;65.80;;;;;;4956635;28;20483;-75
2022/04/03 11:41:05;;;;;;;1.00;0.80;;;5.50;65.90;;;;;;4957576;28;20848;-74
2022/04/03 11:43:31;;;;;;;0.87;0.87;;;5.60;66.00;;;;;;4956864;28;20506;-75
2022/04/03 11:45:59;;;;;;;0.70;0.70;;;5.60;64.40;;;;;;4955337;28;20470;-75
2022/04/03 11:48:28;;;;;;;0.80;0.80;;;5.80;64.50;;;;;;4956837;28;20804;-75
2022/04/03 11:51:07;;;;;;;0.80;0.80;;;6.00;64.40;;;;;;4956291;28;20506;-75
2022/04/03 11:53:33;;;;;;;0.70;0.70;;;6.10;64.10;;;;;;4956575;28;20423;-75
2022/04/03 11:56:10;;;;;;;0.70;0.60;;;6.00;63.50;;;;;;4956348;28;20490;-75
2022/04/03 11:58:39;;;;;;;0.80;0.80;;;5.70;62.60;;;;;;4956106;28;20435;-74
2022/04/03 12:01:06;;;;;;;0.87;0.87;;;5.40;62.80;;;;;;4955642;28;20518;-74
2022/04/03 12:03:35;;;;;;;0.70;0.70;;;5.60;62.00;;;;;;4955706;28;20482;-75
2022/04/03 12:06:16;;;;;;;0.70;0.70;;;6.00;59.50;;;;;;4955826;28;20469;-74
2022/04/03 12:08:45;;;;;;;0.80;0.73;;;5.70;59.90;;;;;;4956253;28;20439;-75
2022/04/03 12:11:19;;;;;;;0.80;0.70;;;6.00;60.10;;;;;;4955509;28;20553;-74
2022/04/03 12:13:45;;;;;;;0.70;0.70;;;6.20;60.20;;;;;;4955325;28;20451;-74
2022/04/03 12:16:16;;;;;;;0.90;0.80;;;6.20;59.90;;;;;;4955305;28;20477;-75
2022/04/03 12:18:53;;;;;;;0.70;0.70;;;6.40;60.00;;;;;;4955413;28;20542;-74
2022/04/03 12:21:20;;;;;;;0.70;0.60;;;6.40;58.60;;;;;;4955596;28;20457;-74
2022/04/03 12:24:07;;;;;;;0.87;0.70;;;6.20;60.30;;;;;;4955880;28;20459;-74
2022/04/03 12:26:36;;;;;;;0.80;0.73;;;6.40;60.80;;;;;;4956091;28;20460;-74
2022/04/03 12:29:05;;;;;;;0.90;0.70;;;6.50;61.50;;;;;;4956709;28;20569;-74
2022/04/03 12:31:34;;;;;;;0.70;0.70;;;6.60;60.70;;;;;;4955493;28;20969;-74
2022/04/03 12:34:06;;;;;;;0.70;0.70;;;6.40;59.70;;;;;;4955112;28;21017;-74
2022/04/03 12:36:38;;;;;;;1.20;0.80;;;6.50;61.00;;;;;;4955731;28;20458;-74
2022/04/03 12:39:05;;;;;;;0.70;0.70;;;6.20;60.40;;;;;;4954947;28;20908;-74
2022/04/03 12:41:31;;;;;;;0.80;0.70;;;6.10;60.90;;;;;;4955290;28;20549;-74
2022/04/03 12:44:00;;;;;;;0.70;0.70;;;6.20;61.00;;;;;;4955091;28;20458;-74
2022/04/03 12:46:36;;;;;;;0.90;0.70;;;6.30;61.80;;;;;;4955324;28;20866;-74
2022/04/03 12:49:03;;;;;;;0.90;0.90;;;6.40;62.80;;;;;;4955169;28;20435;-74
2022/04/03 12:51:30;;;;;;;0.73;0.70;;;6.40;63.70;;;;;;4955146;28;20451;-74
2022/04/03 12:53:58;;;;;;;1.00;0.90;;;6.40;64.20;;;;;;4955042;28;20561;-74
2022/04/03 12:58:24;;;;;;;0.80;0.70;;;6.50;63.10;;;;;;4954739;28;20946;-74
2022/04/03 12:59:20;;;;;;;0.80;0.80;;;6.60;63.30;;;;;;4958446;29;20443;-74
2022/04/03 13:01:51;;;;;;;1.00;0.70;;;6.60;62.50;;;;;;4958860;28;20445;-74
2022/04/03 13:04:30;;;;;;;0.70;0.70;;;6.80;63.00;;;;;;4958783;28;20553;-74
2022/04/03 13:06:57;;;;;;;0.80;0.80;;;6.90;62.80;;;;;;4958788;28;20494;-74
2022/04/03 13:09:23;;;;;;;0.80;0.80;;;7.00;62.20;;;;;;4958684;28;20486;-74
2022/04/03 13:11:51;;;;;;;0.70;0.70;;;6.80;62.60;;;;;;4958604;28;20867;-74
2022/04/03 13:14:23;;;;;;;0.80;0.80;;;6.70;63.00;;;;;;4958409;28;20490;-74
2022/04/03 13:16:52;;;;;;;0.90;0.80;;;6.80;63.40;;;;;;4958804;28;20451;-75
2022/04/03 13:19:21;;;;;;;2.33;0.80;;;6.80;62.30;;;;;;4958570;28;20819;-74
2022/04/03 13:21:48;;;;;;;0.70;0.70;;;6.80;61.90;;;;;;4958369;28;20451;-75
2022/04/03 13:24:15;;;;;;;0.90;0.80;;;6.90;62.10;;;;;;4958291;28;20506;-75
2022/04/03 13:26:42;;;;;;;0.70;0.70;;;6.90;61.10;;;;;;4958405;28;20522;-75
2022/04/03 13:29:12;;;;;;;0.70;0.70;;;6.90;61.50;;;;;;4958294;28;20454;-75
2022/04/03 13:31:41;;;;;;;0.77;0.77;;;6.50;62.40;;;;;;4958268;28;20482;-74
2022/04/03 13:34:08;;;;;;;0.80;0.70;;;6.40;62.40;;;;;;4958219;28;20470;-75
2022/04/03 13:36:35;;;;;;;0.83;0.77;;;6.50;62.70;;;;;;4958232;28;20486;-75
2022/04/03 13:39:04;;;;;;;0.80;0.80;;;6.60;62.60;;;;;;4958165;28;20447;-75
2022/04/03 13:41:33;;;;;;;0.80;0.80;;;6.60;63.00;;;;;;4957779;28;20575;-75
2022/04/03 13:44:00;;;;;;;0.73;0.73;;;6.60;62.50;;;;;;4957969;28;20549;-75
2022/04/03 13:46:27;;;;;;;0.90;0.90;;;6.60;62.70;;;;;;4958025;28;20497;-75
2022/04/03 13:48:55;;;;;;;0.80;0.80;;;6.50;63.00;;;;;;4958580;28;20509;-75
2022/04/03 13:51:22;;;;;;;1.00;0.90;;;6.40;62.80;;;;;;4958438;28;20498;-75
2022/04/03 13:53:49;;;;;;;1.00;0.90;;;6.20;64.50;;;;;;4958435;28;20457;-75
2022/04/03 13:56:17;;;;;;;0.90;0.70;;;6.10;65.60;;;;;;4958899;28;20457;-75
2022/04/03 13:58:44;;;;;;;0.90;0.90;;;6.00;65.50;;;;;;4958869;28;20451;-75
2022/04/03 14:01:11;;;;;;;0.80;0.80;;;6.00;66.00;;;;;;4958177;28;20462;-75
2022/04/03 14:03:38;;;;;;;0.70;0.70;;;5.90;64.80;;;;;;4958275;28;20466;-75
2022/04/03 14:06:06;;;;;;;1.10;0.80;;;5.90;64.90;;;;;;4958024;28;20458;-75
2022/04/03 14:08:34;;;;;;;1.20;1.10;;;5.70;65.40;;;;;;4957484;28;20442;-75
2022/04/03 14:11:01;;;;;;;1.00;0.80;;;5.40;64.70;;;;;;4958059;28;20486;-75
2022/04/03 14:13:31;;;;;;;0.80;0.70;;;5.50;65.30;;;;;;4958155;28;20447;-75
2022/04/03 14:15:59;;;;;;;0.80;0.80;;;5.40;64.20;;;;;;4958751;28;20475;-75
2022/04/03 14:18:26;;;;;;;0.90;0.83;;;5.50;64.70;;;;;;4958454;28;20973;-75
2022/04/03 14:20:54;;;;;;;0.70;0.70;;;5.50;64.10;;;;;;4958850;28;20454;-75
2022/04/03 14:23:22;;;;;;;0.80;0.80;;;5.50;64.60;;;;;;4957364;28;20580;-75
2022/04/03 14:25:50;;;;;;;0.70;0.60;;;5.40;63.50;;;;;;4956948;28;20471;-75
2022/04/03 14:28:17;;;;;;;0.70;0.70;;;5.30;63.70;;;;;;4956986;28;20993;-75
2022/04/03 14:30:44;;;;;;;0.90;0.90;;;5.40;63.70;;;;;;4957152;28;20488;-75
2022/04/03 14:33:11;;;;;;;0.80;0.70;;;5.50;64.00;;;;;;4957204;28;20459;-75
2022/04/03 14:35:38;;;;;;;0.80;0.70;;;5.70;64.30;;;;;;4957107;28;20477;-75
2022/04/03 14:38:05;;;;;;;0.70;0.70;;;5.80;63.50;;;;;;4957047;28;20451;-75
2022/04/03 14:40:33;;;;;;;0.90;0.90;;;6.00;62.00;;;;;;4957009;28;20447;-75
2022/04/03 14:43:00;;;;;;;0.90;0.90;;;6.00;61.50;;;;;;4956726;28;20954;-75
2022/04/03 14:45:26;;;;;;;0.80;0.80;;;6.20;61.40;;;;;;4957084;28;20471;-75
2022/04/03 14:47:53;;;;;;;0.70;0.60;;;6.30;60.60;;;;;;4956931;28;20466;-75
2022/04/03 14:50:20;;;;;;;0.70;0.70;;;6.30;61.60;;;;;;4956778;28;20483;-75
2022/04/03 14:52:46;;;;;;;1.00;0.80;;;6.40;61.60;;;;;;4956552;28;21033;-75
2022/04/03 14:55:13;;;;;;;0.70;0.70;;;6.60;60.70;;;;;;4956707;28;20905;-75
2022/04/03 14:57:41;;;;;;;0.97;0.70;;;6.80;59.90;;;;;;4956631;28;20859;-75
2022/04/03 15:00:11;;;;;;;0.80;0.80;;;6.80;58.50;;;;;;4956256;28;20926;-75
2022/04/03 15:02:38;;;;;;;0.80;0.80;;;6.80;58.00;;;;;;4956648;29;20486;-75
2022/04/03 15:05:07;;;;;;;0.70;0.67;;;6.80;58.00;;;;;;4956523;28;20498;-75
2022/04/03 15:07:35;;;;;;;0.80;0.70;;;6.70;58.30;;;;;;4956542;28;20521;-76
2022/04/03 15:10:02;;;;;;;0.70;0.70;;;6.70;59.10;;;;;;4957315;28;20486;-77
2022/04/03 15:12:29;;;;;;;0.73;0.70;;;6.70;58.80;;;;;;4956448;28;20876;-77
2022/04/03 15:14:58;;;;;;;0.80;0.70;;;6.60;58.00;;;;;;5053211;23;20486;-70
2022/04/03 15:17:25;;;;;;;0.70;0.67;;;6.50;57.80;;;;;;4955783;28;20447;-71
2022/04/03 15:19:52;;;;;;;0.70;0.60;;;6.60;58.70;;;;;;4955426;28;20450;-69
2022/04/03 15:22:19;;;;;;;0.80;0.80;;;6.60;59.20;;;;;;4954621;28;20923;-70
2022/04/03 15:24:46;;;;;;;0.80;0.80;;;6.50;59.50;;;;;;4955663;28;20534;-72
2022/04/03 15:27:13;;;;;;;0.80;0.80;;;6.50;59.20;;;;;;4957490;28;20542;-71
2022/04/03 15:29:47;;;;;;;0.80;0.80;;;6.50;59.90;;;;;;4963804;28;20963;-71
2022/04/03 15:32:15;;;;;;;0.70;0.70;;;6.40;60.80;;;;;;4973625;28;20439;-72
2022/04/03 15:34:42;;;;;;;0.80;0.80;;;6.30;62.50;;;;;;4963856;28;20541;-70
2022/04/03 15:37:12;;;;;;;0.80;0.80;;;6.20;63.20;;;;;;4956005;28;21002;-70
2022/04/03 15:39:39;;;;;;;0.70;0.70;;;6.10;63.50;;;;;;4956173;28;20955;-72
2022/04/03 15:42:06;;;;;;;0.80;0.80;;;6.00;64.00;;;;;;4956259;28;20455;-72
2022/04/03 15:44:32;;;;;;;0.80;0.80;;;5.80;65.20;;;;;;4955224;28;20475;-72
2022/04/03 15:46:59;;;;;;;0.90;0.90;;;5.80;65.30;;;;;;4955704;28;20486;-71
2022/04/03 15:49:27;;;;;;;0.70;0.70;;;5.80;66.00;;;;;;4955550;28;20506;-72
2022/04/03 15:51:54;;;;;;;0.77;0.70;;;5.80;66.40;;;;;;4955320;28;20490;-72
2022/04/03 15:54:21;;;;;;;0.80;0.80;;;5.90;65.80;;;;;;4955386;28;20451;-72
2022/04/03 15:56:47;;;;;;;1.07;0.97;;;5.90;65.70;;;;;;4956072;28;20451;-72
2022/04/03 15:59:14;;;;;;;0.73;0.73;;;5.90;65.90;;;;;;4957091;28;20492;-72
2022/04/03 16:01:41;;;;;;;0.70;0.70;;;5.90;64.70;;;;;;4955473;28;20478;-71
2022/04/03 16:04:08;;;;;;;0.80;0.73;;;6.00;64.00;;;;;;4954941;28;20446;-72
2022/04/03 16:06:36;;;;;;;0.80;0.80;;;6.00;64.30;;;;;;4954858;28;20459;-73
2022/04/03 16:09:03;;;;;;;0.83;0.83;;;6.00;64.60;;;;;;4954784;28;20458;-72